sensor_id;sensor_type;location;lat;lon;timestamp;pressure;altitude;pressure_sealevel;temperature;humidity
50774;BME280;36745;48.544;8.918;2023-06-04T00:01:31;97299.78;;;13.51;71.24
50774;BME280;36745;48.544;8.918;2023-06-04T00:04:51;97300.41;;;13.46;71.39
50774;BME280;36745;48.544;8.918;2023-06-04T00:08:11;97304.09;;;13.43;71.45
50774;BME280;36745;48.544;8.918;2023-06-04T00:11:31;97305.03;;;13.49;71.98
50774;BME280;36745;48.544;8.918;2023-06-04T00:14:53;97295.81;;;13.52;71.90
50774;BME280;36745;48.544;8.918;2023-06-04T00:18:13;97291.16;;;13.31;72.15
50774;BME280;36745;48.544;8.918;2023-06-04T00:21:33;97297.47;;;13.31;71.97
50774;BME280;36745;48.544;8.918;2023-06-04T00:24:53;97294.38;;;13.29;72.61
50774;BME280;36745;48.544;8.918;2023-06-04T00:28:12;97290.84;;;13.20;72.26
50774;BME280;36745;48.544;8.918;2023-06-04T00:31:32;97295.22;;;13.08;73.01
50774;BME280;36745;48.544;8.918;2023-06-04T00:34:54;97290.91;;;12.98;73.43
50774;BME280;36745;48.544;8.918;2023-06-04T00:38:14;97302.41;;;12.87;73.71
50774;BME280;36745;48.544;8.918;2023-06-04T00:41:34;97306.38;;;12.86;73.59
50774;BME280;36745;48.544;8.918;2023-06-04T00:44:54;97305.59;;;12.86;74.09
50774;BME280;36745;48.544;8.918;2023-06-04T00:48:13;97304.22;;;12.81;74.37
50774;BME280;36745;48.544;8.918;2023-06-04T00:51:33;97309.75;;;12.81;74.44
50774;BME280;36745;48.544;8.918;2023-06-04T00:54:53;97305.75;;;12.82;74.17
50774;BME280;36745;48.544;8.918;2023-06-04T00:58:14;97303.56;;;12.68;74.64
50774;BME280;36745;48.544;8.918;2023-06-04T01:05:27;97305.97;;;12.57;74.85
50774;BME280;36745;48.544;8.918;2023-06-04T01:08:52;97311.75;;;12.50;75.06
50774;BME280;36745;48.544;8.918;2023-06-04T01:12:13;97316.97;;;12.48;75.10
50774;BME280;36745;48.544;8.918;2023-06-04T01:15:33;97306.38;;;12.46;76.79
50774;BME280;36745;48.544;8.918;2023-06-04T01:18:53;97318.06;;;12.50;75.10
50774;BME280;36745;48.544;8.918;2023-06-04T01:22:37;97311.97;;;12.34;75.46
50774;BME280;36745;48.544;8.918;2023-06-04T01:25:58;97310.38;;;12.24;76.32
50774;BME280;36745;48.544;8.918;2023-06-04T01:29:18;97310.59;;;12.07;77.02
50774;BME280;36745;48.544;8.918;2023-06-04T01:32:38;97312.06;;;11.99;77.60
50774;BME280;36745;48.544;8.918;2023-06-04T01:35:58;97306.53;;;11.99;77.60
50774;BME280;36745;48.544;8.918;2023-06-04T01:39:18;97310.84;;;12.00;77.39
50774;BME280;36745;48.544;8.918;2023-06-04T01:42:38;97307.44;;;11.96;77.98
50774;BME280;36745;48.544;8.918;2023-06-04T01:45:57;97308.66;;;11.95;78.14
50774;BME280;36745;48.544;8.918;2023-06-04T01:49:17;97310.72;;;11.82;78.03
50774;BME280;36745;48.544;8.918;2023-06-04T01:52:38;97309.59;;;11.80;77.85
50774;BME280;36745;48.544;8.918;2023-06-04T01:55:59;97311.25;;;11.77;78.06
50774;BME280;36745;48.544;8.918;2023-06-04T01:59:18;97311.94;;;11.81;78.56
50774;BME280;36745;48.544;8.918;2023-06-04T02:02:46;97308.97;;;11.75;78.11
50774;BME280;36745;48.544;8.918;2023-06-04T02:06:07;97315.47;;;11.69;78.86
50774;BME280;36745;48.544;8.918;2023-06-04T02:09:27;97311.59;;;11.66;78.41
50774;BME280;36745;48.544;8.918;2023-06-04T02:12:58;97312.75;;;11.56;79.31
50774;BME280;36745;48.544;8.918;2023-06-04T02:16:18;97308.91;;;11.54;78.98
50774;BME280;36745;48.544;8.918;2023-06-04T02:19:42;97314.31;;;11.45;78.99
50774;BME280;36745;48.544;8.918;2023-06-04T02:23:09;97318.75;;;11.42;79.22
50774;BME280;36745;48.544;8.918;2023-06-04T02:26:29;97314.78;;;11.43;79.72
50774;BME280;36745;48.544;8.918;2023-06-04T02:29:48;97309.72;;;11.42;79.57
50774;BME280;36745;48.544;8.918;2023-06-04T02:33:08;97314.59;;;11.38;79.75
50774;BME280;36745;48.544;8.918;2023-06-04T02:36:29;97317.09;;;11.45;79.56
50774;BME280;36745;48.544;8.918;2023-06-04T02:39:50;97315.16;;;11.32;79.83
50774;BME280;36745;48.544;8.918;2023-06-04T02:43:09;97317.56;;;11.30;80.53
50774;BME280;36745;48.544;8.918;2023-06-04T02:46:29;97317.34;;;11.38;79.64
50774;BME280;36745;48.544;8.918;2023-06-04T02:49:49;97314.59;;;11.25;80.42
50774;BME280;36745;48.544;8.918;2023-06-04T02:53:09;97321.91;;;11.19;80.76
50774;BME280;36745;48.544;8.918;2023-06-04T02:56:28;97318.56;;;11.24;80.53
50774;BME280;36745;48.544;8.918;2023-06-04T02:59:48;97326.78;;;11.15;81.26
50774;BME280;36745;48.544;8.918;2023-06-04T03:03:08;97330.75;;;11.14;80.51
50774;BME280;36745;48.544;8.918;2023-06-04T03:06:28;97339.13;;;11.10;80.55
50774;BME280;36745;48.544;8.918;2023-06-04T03:09:49;97348.28;;;11.07;80.99
50774;BME280;36745;48.544;8.918;2023-06-04T03:13:09;97339.13;;;10.98;81.53
50774;BME280;36745;48.544;8.918;2023-06-04T03:16:29;97354.91;;;10.97;81.43
50774;BME280;36745;48.544;8.918;2023-06-04T03:19:48;97349.63;;;10.90;81.81
50774;BME280;36745;48.544;8.918;2023-06-04T03:23:08;97352.06;;;10.88;81.97
50774;BME280;36745;48.544;8.918;2023-06-04T03:26:28;97360.22;;;10.91;82.20
50774;BME280;36745;48.544;8.918;2023-06-04T03:29:48;97358.22;;;10.92;81.58
50774;BME280;36745;48.544;8.918;2023-06-04T03:33:09;97361.88;;;10.89;82.32
50774;BME280;36745;48.544;8.918;2023-06-04T03:36:30;97352.94;;;10.85;82.08
50774;BME280;36745;48.544;8.918;2023-06-04T03:39:57;97366.50;;;10.79;82.31
50774;BME280;36745;48.544;8.918;2023-06-04T03:43:17;97361.44;;;10.78;82.46
50774;BME280;36745;48.544;8.918;2023-06-04T03:46:37;97358.69;;;10.78;82.26
50774;BME280;36745;48.544;8.918;2023-06-04T03:49:56;97358.34;;;10.76;82.27
50774;BME280;36745;48.544;8.918;2023-06-04T03:53:16;97363.75;;;10.79;83.15
50774;BME280;36745;48.544;8.918;2023-06-04T03:56:36;97359.69;;;10.84;82.73
50774;BME280;36745;48.544;8.918;2023-06-04T03:59:56;97359.53;;;10.75;82.79
50774;BME280;36745;48.544;8.918;2023-06-04T04:03:16;97363.53;;;10.74;83.07
50774;BME280;36745;48.544;8.918;2023-06-04T04:06:36;97365.41;;;10.77;83.10
50774;BME280;36745;48.544;8.918;2023-06-04T04:09:56;97365.41;;;10.77;83.36
50774;BME280;36745;48.544;8.918;2023-06-04T04:13:16;97357.78;;;10.81;83.41
50774;BME280;36745;48.544;8.918;2023-06-04T04:16:35;97363.28;;;10.81;83.27
50774;BME280;36745;48.544;8.918;2023-06-04T04:19:55;97367.72;;;10.78;83.79
50774;BME280;36745;48.544;8.918;2023-06-04T04:23:15;97367.81;;;10.75;83.75
50774;BME280;36745;48.544;8.918;2023-06-04T04:26:36;97368.81;;;10.81;83.58
50774;BME280;36745;48.544;8.918;2023-06-04T04:29:56;97376.31;;;11.18;85.05
50774;BME280;36745;48.544;8.918;2023-06-04T04:33:19;97384.25;;;11.89;84.44
50774;BME280;36745;48.544;8.918;2023-06-04T04:36:39;97379.78;;;12.47;83.88
50774;BME280;36745;48.544;8.918;2023-06-04T04:40:00;97380.50;;;12.91;82.65
50774;BME280;36745;48.544;8.918;2023-06-04T04:43:29;97391.16;;;13.42;81.50
50774;BME280;36745;48.544;8.918;2023-06-04T04:46:49;97391.25;;;13.78;80.98
50774;BME280;36745;48.544;8.918;2023-06-04T04:50:10;97399.59;;;14.42;80.35
50774;BME280;36745;48.544;8.918;2023-06-04T04:53:29;97390.63;;;14.65;78.82
50774;BME280;36745;48.544;8.918;2023-06-04T04:56:49;97392.75;;;14.80;77.60
50774;BME280;36745;48.544;8.918;2023-06-04T05:00:10;97385.19;;;14.80;76.86
50774;BME280;36745;48.544;8.918;2023-06-04T05:03:29;97396.31;;;15.22;76.65
50774;BME280;36745;48.544;8.918;2023-06-04T05:06:49;97395.88;;;15.57;74.93
50774;BME280;36745;48.544;8.918;2023-06-04T05:10:09;97405.09;;;15.63;74.43
50774;BME280;36745;48.544;8.918;2023-06-04T05:13:29;97400.22;;;15.81;72.75
50774;BME280;36745;48.544;8.918;2023-06-04T05:16:49;97409.28;;;16.29;73.15
50774;BME280;36745;48.544;8.918;2023-06-04T05:20:09;97408.66;;;16.64;71.16
50774;BME280;36745;48.544;8.918;2023-06-04T05:23:30;97411.19;;;16.91;70.24
50774;BME280;36745;48.544;8.918;2023-06-04T05:26:51;97404.66;;;17.09;68.60
50774;BME280;36745;48.544;8.918;2023-06-04T05:30:11;97404.16;;;17.25;67.81
50774;BME280;36745;48.544;8.918;2023-06-04T05:33:31;97407.31;;;17.33;67.44
50774;BME280;36745;48.544;8.918;2023-06-04T05:36:51;97405.94;;;17.43;66.67
50774;BME280;36745;48.544;8.918;2023-06-04T05:40:12;97408.31;;;17.50;66.19
50774;BME280;36745;48.544;8.918;2023-06-04T05:43:31;97413.00;;;17.73;66.01
50774;BME280;36745;48.544;8.918;2023-06-04T05:46:51;97411.19;;;18.11;64.58
50774;BME280;36745;48.544;8.918;2023-06-04T05:50:11;97412.97;;;18.08;63.51
50774;BME280;36745;48.544;8.918;2023-06-04T05:53:33;97410.53;;;17.60;61.08
50774;BME280;36745;48.544;8.918;2023-06-04T05:56:52;97422.69;;;17.13;62.30
50774;BME280;36745;48.544;8.918;2023-06-04T06:00:12;97414.66;;;17.65;61.89
50774;BME280;36745;48.544;8.918;2023-06-04T06:03:33;97422.00;;;17.83;60.39
50774;BME280;36745;48.544;8.918;2023-06-04T06:06:55;97418.88;;;17.95;60.06
50774;BME280;36745;48.544;8.918;2023-06-04T06:10:16;97412.94;;;17.88;56.48
50774;BME280;36745;48.544;8.918;2023-06-04T06:13:35;97426.63;;;17.71;57.97
50774;BME280;36745;48.544;8.918;2023-06-04T06:16:55;97426.13;;;18.08;59.32
50774;BME280;36745;48.544;8.918;2023-06-04T06:20:15;97420.38;;;18.37;58.42
50774;BME280;36745;48.544;8.918;2023-06-04T06:23:37;97424.44;;;18.36;57.48
50774;BME280;36745;48.544;8.918;2023-06-04T06:26:57;97420.75;;;18.44;57.17
50774;BME280;36745;48.544;8.918;2023-06-04T06:30:17;97426.31;;;18.65;56.93
50774;BME280;36745;48.544;8.918;2023-06-04T06:33:36;97427.63;;;18.69;56.91
50774;BME280;36745;48.544;8.918;2023-06-04T06:37:00;97433.91;;;18.64;55.94
50774;BME280;36745;48.544;8.918;2023-06-04T06:40:19;97437.88;;;18.78;56.74
50774;BME280;36745;48.544;8.918;2023-06-04T06:43:39;97434.13;;;19.12;56.59
50774;BME280;36745;48.544;8.918;2023-06-04T06:46:59;97437.50;;;19.22;56.13
50774;BME280;36745;48.544;8.918;2023-06-04T06:50:19;97431.66;;;19.20;55.76
50774;BME280;36745;48.544;8.918;2023-06-04T06:53:39;97432.56;;;19.37;54.65
50774;BME280;36745;48.544;8.918;2023-06-04T06:56:59;97429.91;;;19.48;54.37
50774;BME280;36745;48.544;8.918;2023-06-04T07:00:19;97422.31;;;19.97;54.57
50774;BME280;36745;48.544;8.918;2023-06-04T07:03:39;97438.00;;;20.31;54.59
50774;BME280;36745;48.544;8.918;2023-06-04T07:06:59;97437.31;;;20.47;53.35
50774;BME280;36745;48.544;8.918;2023-06-04T07:10:19;97431.19;;;20.43;53.26
50774;BME280;36745;48.544;8.918;2023-06-04T07:13:39;97437.03;;;20.34;52.28
50774;BME280;36745;48.544;8.918;2023-06-04T07:17:00;97434.31;;;20.57;52.22
50774;BME280;36745;48.544;8.918;2023-06-04T07:20:21;97433.31;;;20.71;52.05
50774;BME280;36745;48.544;8.918;2023-06-04T07:23:40;97429.97;;;20.56;50.68
50774;BME280;36745;48.544;8.918;2023-06-04T07:27:00;97438.81;;;20.37;50.12
50774;BME280;36745;48.544;8.918;2023-06-04T07:30:20;97426.41;;;20.01;49.49
50774;BME280;36745;48.544;8.918;2023-06-04T07:33:40;97437.03;;;20.34;50.16
50774;BME280;36745;48.544;8.918;2023-06-04T07:37:03;97433.44;;;20.34;50.10
50774;BME280;36745;48.544;8.918;2023-06-04T07:40:23;97426.13;;;20.59;50.39
50774;BME280;36745;48.544;8.918;2023-06-04T07:43:42;97429.53;;;20.96;50.02
50774;BME280;36745;48.544;8.918;2023-06-04T07:47:02;97420.63;;;21.03;49.15
50774;BME280;36745;48.544;8.918;2023-06-04T07:50:22;97413.53;;;21.19;49.73
50774;BME280;36745;48.544;8.918;2023-06-04T07:53:42;97417.06;;;20.97;47.81
50774;BME280;36745;48.544;8.918;2023-06-04T07:57:04;97407.94;;;21.24;49.45
50774;BME280;36745;48.544;8.918;2023-06-04T08:00:24;97409.44;;;21.59;48.97
50774;BME280;36745;48.544;8.918;2023-06-04T08:03:44;97404.31;;;21.63;49.29
50774;BME280;36745;48.544;8.918;2023-06-04T08:07:04;97413.72;;;21.82;48.65
50774;BME280;36745;48.544;8.918;2023-06-04T08:10:24;97406.81;;;21.94;47.55
50774;BME280;36745;48.544;8.918;2023-06-04T08:13:44;97401.97;;;21.84;46.74
50774;BME280;36745;48.544;8.918;2023-06-04T08:17:04;97403.50;;;21.90;47.35
50774;BME280;36745;48.544;8.918;2023-06-04T08:20:24;97404.94;;;22.25;47.64
50774;BME280;36745;48.544;8.918;2023-06-04T08:23:43;97409.59;;;22.63;47.77
50774;BME280;36745;48.544;8.918;2023-06-04T08:27:03;97415.66;;;22.78;46.62
50774;BME280;36745;48.544;8.918;2023-06-04T08:30:23;97404.41;;;22.78;46.68
50774;BME280;36745;48.544;8.918;2023-06-04T08:33:45;97402.66;;;23.11;46.28
50774;BME280;36745;48.544;8.918;2023-06-04T08:37:06;97407.13;;;22.95;45.19
50774;BME280;36745;48.544;8.918;2023-06-04T08:40:26;97395.25;;;23.13;45.17
50774;BME280;36745;48.544;8.918;2023-06-04T08:43:46;97407.81;;;23.07;44.11
50774;BME280;36745;48.544;8.918;2023-06-04T08:47:08;97404.41;;;22.32;43.86
50774;BME280;36745;48.544;8.918;2023-06-04T08:50:35;97400.44;;;22.57;45.56
50774;BME280;36745;48.544;8.918;2023-06-04T08:53:57;97406.19;;;23.17;45.33
50774;BME280;36745;48.544;8.918;2023-06-04T08:57:20;97403.53;;;23.30;44.33
50774;BME280;36745;48.544;8.918;2023-06-04T09:00:40;97395.00;;;23.47;44.04
50774;BME280;36745;48.544;8.918;2023-06-04T09:04:05;97405.53;;;23.35;43.42
50774;BME280;36745;48.544;8.918;2023-06-04T09:07:25;97409.41;;;22.96;42.61
50774;BME280;36745;48.544;8.918;2023-06-04T09:10:46;97409.91;;;23.00;42.04
50774;BME280;36745;48.544;8.918;2023-06-04T09:14:14;97406.59;;;23.32;42.41
50774;BME280;36745;48.544;8.918;2023-06-04T09:17:35;97422.50;;;23.24;42.26
50774;BME280;36745;48.544;8.918;2023-06-04T09:21:02;97415.47;;;23.71;41.59
50774;BME280;36745;48.544;8.918;2023-06-04T09:24:25;97417.94;;;23.21;41.48
50774;BME280;36745;48.544;8.918;2023-06-04T09:27:45;97402.78;;;23.29;40.73
50774;BME280;36745;48.544;8.918;2023-06-04T09:31:04;97424.59;;;23.18;40.32
50774;BME280;36745;48.544;8.918;2023-06-04T09:34:28;97419.13;;;22.95;40.37
50774;BME280;36745;48.544;8.918;2023-06-04T09:37:55;97414.41;;;23.44;41.70
50774;BME280;36745;48.544;8.918;2023-06-04T09:41:17;97419.09;;;23.66;40.81
50774;BME280;36745;48.544;8.918;2023-06-04T09:44:45;97412.19;;;23.92;39.47
50774;BME280;36745;48.544;8.918;2023-06-04T09:48:07;97416.06;;;23.64;39.98
50774;BME280;36745;48.544;8.918;2023-06-04T09:51:28;97406.19;;;23.52;40.61
50774;BME280;36745;48.544;8.918;2023-06-04T09:54:48;97407.63;;;23.64;40.10
50774;BME280;36745;48.544;8.918;2023-06-04T09:58:10;97411.72;;;23.88;40.63
50774;BME280;36745;48.544;8.918;2023-06-04T10:01:30;97417.75;;;23.97;39.49
50774;BME280;36745;48.544;8.918;2023-06-04T10:04:54;97416.31;;;23.91;39.62
50774;BME280;36745;48.544;8.918;2023-06-04T10:08:17;97400.09;;;24.21;39.58
50774;BME280;36745;48.544;8.918;2023-06-04T10:11:40;97401.75;;;24.11;38.46
50774;BME280;36745;48.544;8.918;2023-06-04T10:15:03;97405.84;;;24.10;38.45
50774;BME280;36745;48.544;8.918;2023-06-04T10:18:24;97401.03;;;24.05;38.70
50774;BME280;36745;48.544;8.918;2023-06-04T10:21:45;97393.78;;;23.91;38.60
50774;BME280;36745;48.544;8.918;2023-06-04T10:25:06;97396.53;;;23.96;39.07
50774;BME280;36745;48.544;8.918;2023-06-04T10:28:26;97394.47;;;24.21;39.02
50774;BME280;36745;48.544;8.918;2023-06-04T10:31:46;97389.16;;;24.36;38.13
50774;BME280;36745;48.544;8.918;2023-06-04T10:35:06;97385.06;;;24.37;38.03
50774;BME280;36745;48.544;8.918;2023-06-04T10:38:29;97396.63;;;24.52;37.75
50774;BME280;36745;48.544;8.918;2023-06-04T10:42:04;97404.94;;;24.02;37.64
50774;BME280;36745;48.544;8.918;2023-06-04T10:45:42;97389.00;;;24.29;39.02
50774;BME280;36745;48.544;8.918;2023-06-04T10:49:02;97389.06;;;24.79;37.62
50774;BME280;36745;48.544;8.918;2023-06-04T10:52:22;97387.03;;;24.80;37.91
50774;BME280;36745;48.544;8.918;2023-06-04T10:55:49;97384.81;;;24.73;37.49
50774;BME280;36745;48.544;8.918;2023-06-04T10:59:13;97398.75;;;24.84;37.45
50774;BME280;36745;48.544;8.918;2023-06-04T11:02:33;97386.88;;;24.53;37.26
50774;BME280;36745;48.544;8.918;2023-06-04T11:05:53;97391.84;;;24.47;37.11
50774;BME280;36745;48.544;8.918;2023-06-04T11:09:14;97395.03;;;24.38;37.30
50774;BME280;36745;48.544;8.918;2023-06-04T11:16:14;97389.41;;;24.14;37.73
50774;BME280;36745;48.544;8.918;2023-06-04T11:19:36;97390.25;;;24.71;37.62
50774;BME280;36745;48.544;8.918;2023-06-04T11:22:57;97397.84;;;24.57;36.57
50774;BME280;36745;48.544;8.918;2023-06-04T11:26:17;97401.28;;;23.82;36.68
50774;BME280;36745;48.544;8.918;2023-06-04T11:29:37;97389.56;;;23.78;36.67
50774;BME280;36745;48.544;8.918;2023-06-04T11:33:04;97392.19;;;23.95;37.01
50774;BME280;36745;48.544;8.918;2023-06-04T11:36:25;97395.06;;;23.65;36.83
50774;BME280;36745;48.544;8.918;2023-06-04T11:39:45;97385.03;;;23.70;37.40
50774;BME280;36745;48.544;8.918;2023-06-04T11:43:10;97387.31;;;23.96;36.89
50774;BME280;36745;48.544;8.918;2023-06-04T11:46:33;97388.50;;;24.06;36.91
50774;BME280;36745;48.544;8.918;2023-06-04T11:49:56;97377.44;;;24.32;36.91
50774;BME280;36745;48.544;8.918;2023-06-04T11:53:15;97383.53;;;24.36;36.58
50774;BME280;36745;48.544;8.918;2023-06-04T11:56:35;97377.44;;;24.70;36.54
50774;BME280;36745;48.544;8.918;2023-06-04T11:59:56;97381.22;;;25.10;36.51
50774;BME280;36745;48.544;8.918;2023-06-04T12:03:16;97387.19;;;24.87;36.04
50774;BME280;36745;48.544;8.918;2023-06-04T12:06:35;97379.88;;;24.97;36.09
50774;BME280;36745;48.544;8.918;2023-06-04T12:10:05;97376.56;;;25.12;35.84
50774;BME280;36745;48.544;8.918;2023-06-04T12:13:25;97377.47;;;25.33;34.98
50774;BME280;36745;48.544;8.918;2023-06-04T12:16:58;97373.28;;;25.08;35.16
50774;BME280;36745;48.544;8.918;2023-06-04T12:20:32;97363.59;;;25.35;34.57
50774;BME280;36745;48.544;8.918;2023-06-04T12:23:54;97371.84;;;25.33;34.30
50774;BME280;36745;48.544;8.918;2023-06-04T12:27:14;97383.66;;;25.00;34.15
50774;BME280;36745;48.544;8.918;2023-06-04T12:30:39;97373.41;;;24.46;34.26
50774;BME280;36745;48.544;8.918;2023-06-04T12:34:00;97365.69;;;24.47;34.95
50774;BME280;36745;48.544;8.918;2023-06-04T12:37:21;97358.47;;;24.51;35.20
50774;BME280;36745;48.544;8.918;2023-06-04T12:40:41;97364.84;;;25.08;35.11
50774;BME280;36745;48.544;8.918;2023-06-04T12:44:01;97371.44;;;25.11;34.14
50774;BME280;36745;48.544;8.918;2023-06-04T12:47:21;97361.22;;;25.26;34.67
50774;BME280;36745;48.544;8.918;2023-06-04T12:50:41;97363.28;;;25.39;34.32
50774;BME280;36745;48.544;8.918;2023-06-04T12:54:01;97359.13;;;25.27;34.15
50774;BME280;36745;48.544;8.918;2023-06-04T12:57:21;97359.69;;;25.25;33.86
50774;BME280;36745;48.544;8.918;2023-06-04T13:00:41;97367.53;;;24.82;34.05
50774;BME280;36745;48.544;8.918;2023-06-04T13:04:00;97363.34;;;24.51;34.35
50774;BME280;36745;48.544;8.918;2023-06-04T13:07:20;97360.97;;;24.36;34.29
50774;BME280;36745;48.544;8.918;2023-06-04T13:10:40;97354.56;;;24.92;34.95
50774;BME280;36745;48.544;8.918;2023-06-04T13:14:00;97360.69;;;25.41;34.50
50774;BME280;36745;48.544;8.918;2023-06-04T13:17:20;97361.72;;;24.74;33.48
50774;BME280;36745;48.544;8.918;2023-06-04T13:20:40;97356.28;;;24.44;33.96
50774;BME280;36745;48.544;8.918;2023-06-04T13:24:00;97365.25;;;24.61;33.45
50774;BME280;36745;48.544;8.918;2023-06-04T13:27:20;97359.13;;;24.95;33.98
50774;BME280;36745;48.544;8.918;2023-06-04T13:30:40;97357.31;;;24.97;33.40
50774;BME280;36745;48.544;8.918;2023-06-04T13:33:59;97359.44;;;24.73;33.78
50774;BME280;36745;48.544;8.918;2023-06-04T13:37:19;97356.53;;;24.97;33.93
50774;BME280;36745;48.544;8.918;2023-06-04T13:40:39;97353.13;;;25.17;33.63
50774;BME280;36745;48.544;8.918;2023-06-04T13:43:59;97351.47;;;25.40;33.53
50774;BME280;36745;48.544;8.918;2023-06-04T13:47:19;97351.38;;;25.46;33.69
50774;BME280;36745;48.544;8.918;2023-06-04T13:50:39;97350.75;;;25.21;31.93
50774;BME280;36745;48.544;8.918;2023-06-04T13:53:59;97343.97;;;24.98;32.25
50774;BME280;36745;48.544;8.918;2023-06-04T13:57:18;97357.00;;;25.01;31.91
50774;BME280;36745;48.544;8.918;2023-06-04T14:00:38;97338.72;;;25.21;31.96
50774;BME280;36745;48.544;8.918;2023-06-04T14:03:58;97336.53;;;25.14;32.07
50774;BME280;36745;48.544;8.918;2023-06-04T14:07:18;97331.41;;;25.12;31.72
50774;BME280;36745;48.544;8.918;2023-06-04T14:10:38;97340.03;;;24.88;32.06
50774;BME280;36745;48.544;8.918;2023-06-04T14:14:00;97347.41;;;24.91;31.33
50774;BME280;36745;48.544;8.918;2023-06-04T14:17:20;97357.53;;;24.81;31.40
50774;BME280;36745;48.544;8.918;2023-06-04T14:20:40;97351.28;;;24.69;31.22
50774;BME280;36745;48.544;8.918;2023-06-04T14:24:00;97344.69;;;24.66;30.82
50774;BME280;36745;48.544;8.918;2023-06-04T14:27:20;97346.19;;;24.67;31.48
50774;BME280;36745;48.544;8.918;2023-06-04T14:30:40;97336.50;;;24.82;30.81
50774;BME280;36745;48.544;8.918;2023-06-04T14:34:00;97335.41;;;24.85;30.73
50774;BME280;36745;48.544;8.918;2023-06-04T14:37:19;97324.38;;;24.87;31.18
50774;BME280;36745;48.544;8.918;2023-06-04T14:40:41;97333.91;;;24.84;30.88
50774;BME280;36745;48.544;8.918;2023-06-04T14:44:02;97332.78;;;24.74;30.80
50774;BME280;36745;48.544;8.918;2023-06-04T14:47:22;97328.22;;;24.71;30.76
50774;BME280;36745;48.544;8.918;2023-06-04T14:50:42;97316.75;;;25.00;30.93
50774;BME280;36745;48.544;8.918;2023-06-04T14:54:02;97308.00;;;25.17;30.23
50774;BME280;36745;48.544;8.918;2023-06-04T14:57:22;97308.69;;;24.91;30.05
50774;BME280;36745;48.544;8.918;2023-06-04T15:00:42;97317.63;;;24.77;30.25
50774;BME280;36745;48.544;8.918;2023-06-04T15:04:02;97310.63;;;24.64;30.17
50774;BME280;36745;48.544;8.918;2023-06-04T15:07:22;97311.44;;;24.78;29.85
50774;BME280;36745;48.544;8.918;2023-06-04T15:10:42;97308.28;;;25.00;30.04
50774;BME280;36745;48.544;8.918;2023-06-04T15:14:02;97312.19;;;24.79;29.54
50774;BME280;36745;48.544;8.918;2023-06-04T15:17:22;97306.88;;;24.56;29.72
50774;BME280;36745;48.544;8.918;2023-06-04T15:20:42;97303.25;;;24.61;29.97
50774;BME280;36745;48.544;8.918;2023-06-04T15:24:02;97306.06;;;24.61;29.51
50774;BME280;36745;48.544;8.918;2023-06-04T15:27:21;97302.41;;;24.66;29.86
50774;BME280;36745;48.544;8.918;2023-06-04T15:30:41;97304.75;;;24.62;29.13
50774;BME280;36745;48.544;8.918;2023-06-04T15:34:01;97306.06;;;24.61;29.45
50774;BME280;36745;48.544;8.918;2023-06-04T15:37:21;97297.31;;;24.46;30.28
50774;BME280;36745;48.544;8.918;2023-06-04T15:40:41;97310.19;;;24.60;30.33
50774;BME280;36745;48.544;8.918;2023-06-04T15:44:00;97303.09;;;24.35;30.30
50774;BME280;36745;48.544;8.918;2023-06-04T15:47:20;97301.56;;;24.53;30.79
50774;BME280;36745;48.544;8.918;2023-06-04T15:50:40;97301.31;;;24.70;30.41
50774;BME280;36745;48.544;8.918;2023-06-04T15:54:00;97303.53;;;24.77;30.41
50774;BME280;36745;48.544;8.918;2023-06-04T15:57:20;97292.88;;;24.70;30.41
50774;BME280;36745;48.544;8.918;2023-06-04T16:00:40;97289.09;;;24.80;30.16
50774;BME280;36745;48.544;8.918;2023-06-04T16:04:00;97292.88;;;24.70;30.07
50774;BME280;36745;48.544;8.918;2023-06-04T16:07:20;97284.50;;;24.64;30.14
50774;BME280;36745;48.544;8.918;2023-06-04T16:10:40;97292.31;;;24.39;30.15
50774;BME280;36745;48.544;8.918;2023-06-04T16:14:00;97282.25;;;24.44;30.15
50774;BME280;36745;48.544;8.918;2023-06-04T16:17:20;97293.69;;;24.33;29.97
50774;BME280;36745;48.544;8.918;2023-06-04T16:20:40;97290.94;;;24.27;29.96
50774;BME280;36745;48.544;8.918;2023-06-04T16:24:00;97284.22;;;24.11;30.05
50774;BME280;36745;48.544;8.918;2023-06-04T16:27:20;97288.16;;;24.03;30.29
50774;BME280;36745;48.544;8.918;2023-06-04T16:30:40;97286.84;;;24.04;30.43
50774;BME280;36745;48.544;8.918;2023-06-04T16:34:00;97287.69;;;23.99;30.29
50774;BME280;36745;48.544;8.918;2023-06-04T16:37:19;97289.28;;;23.94;30.34
50774;BME280;36745;48.544;8.918;2023-06-04T16:40:39;97286.94;;;23.98;30.30
50774;BME280;36745;48.544;8.918;2023-06-04T16:43:59;97288.59;;;23.88;29.89
50774;BME280;36745;48.544;8.918;2023-06-04T16:47:19;97276.25;;;23.72;30.00
50774;BME280;36745;48.544;8.918;2023-06-04T16:50:39;97286.44;;;23.75;30.28
50774;BME280;36745;48.544;8.918;2023-06-04T16:53:59;97282.34;;;23.76;30.39
50774;BME280;36745;48.544;8.918;2023-06-04T16:57:18;97283.88;;;23.77;30.48
50774;BME280;36745;48.544;8.918;2023-06-04T17:00:38;97280.97;;;23.64;30.43
50774;BME280;36745;48.544;8.918;2023-06-04T17:03:58;97280.47;;;23.60;30.56
50774;BME280;36745;48.544;8.918;2023-06-04T17:07:18;97279.66;;;23.65;30.46
50774;BME280;36745;48.544;8.918;2023-06-04T17:10:37;97277.16;;;23.62;30.43
50774;BME280;36745;48.544;8.918;2023-06-04T17:13:57;97274.41;;;23.56;30.66
50774;BME280;36745;48.544;8.918;2023-06-04T17:17:17;97280.22;;;23.64;30.76
50774;BME280;36745;48.544;8.918;2023-06-04T17:20:37;97275.81;;;23.68;30.23
50774;BME280;36745;48.544;8.918;2023-06-04T17:23:57;97276.75;;;23.52;30.22
50774;BME280;36745;48.544;8.918;2023-06-04T17:27:17;97279.41;;;23.39;30.45
50774;BME280;36745;48.544;8.918;2023-06-04T17:30:37;97272.56;;;23.34;30.53
50774;BME280;36745;48.544;8.918;2023-06-04T17:33:57;97277.94;;;23.32;30.65
50774;BME280;36745;48.544;8.918;2023-06-04T17:37:17;97279.47;;;23.33;31.10
50774;BME280;36745;48.544;8.918;2023-06-04T17:40:37;97286.22;;;23.25;30.86
50774;BME280;36745;48.544;8.918;2023-06-04T17:43:56;97283.22;;;23.17;30.98
50774;BME280;36745;48.544;8.918;2023-06-04T17:47:16;97285.25;;;23.17;30.98
50774;BME280;36745;48.544;8.918;2023-06-04T17:50:36;97287.72;;;23.01;31.25